Time;durP1;ratioP1;P1;durP2;ratioP2;P2;SDS_P1;SDS_P2;PMS_P1;PMS_P2;Temp;Humidity;BMP_temperature;BMP_pressure;BME280_temperature;BME280_humidity;BME280_pressure;Samples;Min_cycle;Max_cycle;Signal;HPM_P1;HPM_P2
2022/12/12 00:01:23;;;;;;;24.75;12.73;;;1.40;99.90;;;;;;5007610;28;20113;-61
2022/12/12 00:03:49;;;;;;;28.05;12.88;;;1.40;99.90;;;;;;4924758;29;20048;-61
2022/12/12 00:06:15;;;;;;;27.38;13.05;;;1.40;99.90;;;;;;4950272;28;20049;-62
2022/12/12 00:08:41;;;;;;;26.52;12.80;;;1.40;99.90;;;;;;4893007;29;20036;-61
2022/12/12 00:11:20;;;;;;;27.52;12.73;;;1.40;99.90;;;;;;5196248;27;20124;-61
2022/12/12 00:13:46;;;;;;;29.08;13.45;;;1.40;99.90;;;;;;5144603;27;20054;-61
2022/12/12 00:16:12;;;;;;;25.92;12.70;;;1.30;99.90;;;;;;5119583;27;20043;-62
2022/12/12 00:18:39;;;;;;;23.60;12.73;;;1.40;99.90;;;;;;5134138;27;20503;-63
2022/12/12 00:21:07;;;;;;;28.15;12.48;;;1.40;99.90;;;;;;5149035;27;20489;-61
2022/12/12 00:23:33;;;;;;;26.50;12.50;;;1.40;99.90;;;;;;5134312;27;20039;-62
2022/12/12 00:26:04;;;;;;;23.42;12.55;;;1.40;99.90;;;;;;5142419;27;20459;-61
2022/12/12 00:28:29;;;;;;;24.23;12.45;;;1.40;99.90;;;;;;5090461;28;20052;-62
2022/12/12 00:30:55;;;;;;;24.38;11.90;;;1.40;99.90;;;;;;5030937;28;20041;-62
2022/12/12 00:33:21;;;;;;;27.30;11.88;;;1.40;99.90;;;;;;5002799;28;20109;-61
2022/12/12 00:35:58;;;;;;;25.70;12.90;;;1.40;99.90;;;;;;5183907;27;20124;-59
2022/12/12 00:38:23;;;;;;;26.90;12.50;;;1.40;99.90;;;;;;5138600;27;20054;-61
2022/12/12 00:40:55;;;;;;;27.40;13.43;;;1.40;99.90;;;;;;5164638;27;20397;-61
2022/12/12 00:43:21;;;;;;;26.65;12.85;;;1.40;99.90;;;;;;5146274;27;20096;-61
2022/12/12 00:45:46;;;;;;;25.27;12.45;;;1.40;99.90;;;;;;5118430;27;20466;-61
2022/12/12 00:48:12;;;;;;;24.95;12.77;;;1.40;99.90;;;;;;5054570;28;20472;-61
2022/12/12 00:50:38;;;;;;;26.50;12.57;;;1.40;99.90;;;;;;5018145;28;20045;-62
2022/12/12 00:53:03;;;;;;;25.15;12.50;;;1.40;99.90;;;;;;4994519;28;20054;-61
2022/12/12 00:55:29;;;;;;;25.13;12.68;;;1.40;99.90;;;;;;4981361;28;20042;-61
2022/12/12 00:57:54;;;;;;;24.30;12.52;;;1.40;99.90;;;;;;4910145;28;20535;-62
2022/12/12 01:00:33;;;;;;;26.48;12.18;;;1.40;99.90;;;;;;5194155;27;20144;-62
2022/12/12 01:02:58;;;;;;;25.27;12.55;;;1.40;99.90;;;;;;5137122;27;21104;-62
2022/12/12 01:05:25;;;;;;;26.60;12.63;;;1.40;99.90;;;;;;5148153;27;20043;-62
2022/12/12 01:07:51;;;;;;;23.48;12.40;;;1.40;99.90;;;;;;5148075;27;20122;-62
2022/12/12 01:10:17;;;;;;;23.13;12.45;;;1.40;99.90;;;;;;5091246;28;20072;-62
2022/12/12 01:12:42;;;;;;;24.13;12.20;;;1.40;99.90;;;;;;5053937;28;20137;-62
2022/12/12 01:15:09;;;;;;;25.23;12.07;;;1.40;99.90;;;;;;5047848;28;20047;-62
2022/12/12 01:17:36;;;;;;;20.05;11.35;;;1.40;99.90;;;;;;5033629;28;20056;-62
2022/12/12 01:20:08;;;;;;;26.45;12.32;;;1.40;99.90;;;;;;4951966;28;20494;-61
2022/12/12 01:22:33;;;;;;;23.38;11.90;;;1.40;99.90;;;;;;4829208;29;20095;-61
2022/12/12 01:25:11;;;;;;;25.02;12.00;;;1.40;99.90;;;;;;5197216;27;20128;-61
2022/12/12 01:27:37;;;;;;;23.25;12.40;;;1.40;99.90;;;;;;5172016;27;20053;-61
2022/12/12 01:30:04;;;;;;;24.88;12.10;;;1.40;99.90;;;;;;5171015;27;20122;-61
2022/12/12 01:32:30;;;;;;;24.15;12.40;;;1.40;99.90;;;;;;5149038;27;20039;-62
2022/12/12 01:34:56;;;;;;;22.63;12.07;;;1.40;99.90;;;;;;5096555;27;20433;-62
2022/12/12 01:37:22;;;;;;;26.05;13.00;;;1.40;99.90;;;;;;5066859;28;20070;-61
2022/12/12 01:39:47;;;;;;;25.00;12.35;;;1.40;99.90;;;;;;5069007;28;20045;-61
2022/12/12 01:42:16;;;;;;;25.95;12.48;;;1.40;99.90;;;;;;5077685;28;20040;-62
2022/12/12 01:44:50;;;;;;;22.83;11.77;;;1.30;99.90;;;;;;4977844;28;20039;-62
2022/12/12 01:47:19;;;;;;;24.05;12.07;;;1.30;99.90;;;;;;4910130;29;20036;-61
2022/12/12 01:50:06;;;;;;;24.20;12.38;;;1.30;99.90;;;;;;5190637;27;20594;-61
2022/12/12 01:52:43;;;;;;;25.35;13.18;;;1.30;99.90;;;;;;5139516;27;20042;-62
2022/12/12 01:55:14;;;;;;;23.73;12.23;;;1.30;99.90;;;;;;5153765;27;20042;-61
2022/12/12 01:57:45;;;;;;;25.08;12.40;;;1.30;99.90;;;;;;5138299;27;20485;-62
2022/12/12 02:00:12;;;;;;;23.65;12.60;;;1.40;99.90;;;;;;5092168;28;20052;-61
2022/12/12 02:02:41;;;;;;;24.98;12.10;;;1.40;99.90;;;;;;5038780;28;20051;-62
2022/12/12 02:05:19;;;;;;;25.45;12.95;;;1.40;99.90;;;;;;5040355;28;20046;-61
2022/12/12 02:07:45;;;;;;;22.23;11.30;;;1.40;99.90;;;;;;4990899;28;20042;-65
2022/12/12 02:10:22;;;;;;;24.58;12.45;;;1.40;99.90;;;;;;5195671;27;20128;-62
2022/12/12 02:12:48;;;;;;;22.48;11.98;;;1.40;99.90;;;;;;5134477;27;20401;-62
2022/12/12 02:15:13;;;;;;;24.35;12.45;;;1.30;99.90;;;;;;5148129;27;20047;-61
2022/12/12 02:18:21;;;;;;;24.90;12.15;;;1.30;99.90;;;;;;5161960;27;20542;-61
2022/12/12 02:21:14;;;;;;;26.05;12.48;;;1.30;99.90;;;;;;5038132;28;20061;-61
2022/12/12 02:24:04;;;;;;;25.08;12.43;;;1.30;99.90;;;;;;5021127;28;20072;-62
2022/12/12 02:26:45;;;;;;;24.33;12.23;;;1.40;99.90;;;;;;5042889;28;20057;-62
2022/12/12 02:29:41;;;;;;;24.23;11.82;;;1.40;99.90;;;;;;4974025;28;20126;-61
2022/12/12 02:32:21;;;;;;;25.92;11.90;;;1.40;99.90;;;;;;4880406;29;20041;-61
2022/12/12 02:35:05;;;;;;;23.83;12.00;;;1.40;99.90;;;;;;5176820;27;20133;-61
2022/12/12 02:37:40;;;;;;;24.00;12.25;;;1.40;99.90;;;;;;5129519;27;20051;-62
2022/12/12 02:40:27;;;;;;;26.02;13.27;;;1.40;99.90;;;;;;5098967;28;20044;-61
2022/12/12 02:43:12;;;;;;;22.83;11.80;;;1.40;99.90;;;;;;5064903;28;20044;-61
2022/12/12 02:46:23;;;;;;;22.92;11.13;;;1.40;99.90;;;;;;5057943;28;20045;-61
2022/12/12 02:49:10;;;;;;;26.08;12.80;;;1.40;99.90;;;;;;4939318;28;20059;-62
2022/12/12 02:51:37;;;;;;;26.50;12.00;;;1.40;99.90;;;;;;4909761;29;20073;-62
2022/12/12 02:54:15;;;;;;;23.05;11.88;;;1.40;99.90;;;;;;4843850;29;20480;-61
2022/12/12 02:56:51;;;;;;;26.65;12.48;;;1.40;99.90;;;;;;4782480;29;20048;-61
2022/12/12 02:59:41;;;;;;;22.95;11.18;;;1.40;99.90;;;;;;5192405;27;20120;-61
2022/12/12 03:02:25;;;;;;;22.70;12.15;;;1.40;99.90;;;;;;5135541;27;20043;-62
2022/12/12 03:08:11;;;;;;;26.13;12.40;;;1.40;99.90;;;;;;5114134;28;20475;-61
2022/12/12 03:10:55;;;;;;;25.95;12.60;;;1.40;99.90;;;;;;5058991;28;20049;-61
2022/12/12 03:13:46;;;;;;;25.17;12.95;;;1.40;99.90;;;;;;5019187;28;20547;-61
2022/12/12 03:16:42;;;;;;;27.15;12.60;;;1.40;99.90;;;;;;5023516;28;20041;-62
2022/12/12 03:19:28;;;;;;;25.75;12.38;;;1.40;99.90;;;;;;4928575;29;20144;-61
2022/12/12 03:24:34;;;;;;;25.67;12.38;;;1.40;99.90;;;;;;5182063;27;20133;-60
2022/12/12 03:27:05;;;;;;;23.30;11.50;;;1.30;99.90;;;;;;5149027;27;20419;-62
2022/12/12 03:29:35;;;;;;;22.80;11.82;;;1.40;99.90;;;;;;5166228;27;20045;-62
2022/12/12 03:32:10;;;;;;;23.35;12.05;;;1.40;99.90;;;;;;5147471;27;20381;-62
2022/12/12 03:34:45;;;;;;;28.70;11.55;;;1.40;99.90;;;;;;5165179;27;20039;-62
2022/12/12 03:37:25;;;;;;;24.38;12.48;;;1.40;99.90;;;;;;5122405;27;20364;-62
2022/12/12 03:39:56;;;;;;;27.10;12.60;;;1.40;99.90;;;;;;5079609;28;20043;-61
2022/12/12 03:42:30;;;;;;;23.27;12.55;;;1.40;99.90;;;;;;5071763;28;20055;-62
2022/12/12 03:45:10;;;;;;;25.85;12.63;;;1.40;99.90;;;;;;4966584;28;20035;-62
2022/12/12 03:48:04;;;;;;;25.77;12.65;;;1.40;99.90;;;;;;5189295;27;20149;-62
2022/12/12 03:50:49;;;;;;;24.45;12.48;;;1.40;99.90;;;;;;5130162;27;20035;-61
2022/12/12 03:53:29;;;;;;;23.30;11.88;;;1.40;99.90;;;;;;5151443;27;20047;-62
2022/12/12 03:56:21;;;;;;;24.77;13.15;;;1.40;99.90;;;;;;5091846;28;20056;-61
2022/12/12 03:58:52;;;;;;;26.17;12.57;;;1.40;99.90;;;;;;4989812;28;20493;-61
2022/12/12 04:01:22;;;;;;;24.23;12.55;;;1.40;99.90;;;;;;4909533;28;20366;-61
2022/12/12 04:04:01;;;;;;;23.88;11.60;;;1.40;99.90;;;;;;4824653;29;20109;-62
2022/12/12 04:06:51;;;;;;;22.23;12.10;;;1.40;99.90;;;;;;4706397;30;20376;-61
2022/12/12 04:15:21;;;;;;;25.42;12.20;;;1.30;99.90;;;;;;5134049;27;20492;-63
2022/12/12 04:18:15;;;;;;;24.85;11.77;;;1.30;99.90;;;;;;5128081;27;20520;-61
2022/12/12 04:24:10;;;;;;;24.00;12.07;;;1.30;99.90;;;;;;5015035;28;20042;-62
2022/12/12 04:26:43;;;;;;;24.02;11.43;;;1.30;99.90;;;;;;4942477;28;20047;-62
2022/12/12 04:29:18;;;;;;;22.80;11.68;;;1.30;99.90;;;;;;4922908;29;20077;-61
2022/12/12 04:31:52;;;;;;;25.08;12.75;;;1.30;99.90;;;;;;4940110;28;20082;-66
2022/12/12 04:34:43;;;;;;;26.38;12.20;;;1.30;99.90;;;;;;4860166;29;20044;-62
2022/12/12 04:37:27;;;;;;;23.98;12.35;;;1.30;99.90;;;;;;5194636;27;20121;-61
2022/12/12 04:39:58;;;;;;;24.67;11.50;;;1.30;99.90;;;;;;5149623;27;20050;-61
2022/12/12 04:42:27;;;;;;;24.75;12.20;;;1.30;99.90;;;;;;5146357;27;20038;-62
2022/12/12 04:45:00;;;;;;;23.75;11.50;;;1.30;99.90;;;;;;5135613;27;20051;-61
2022/12/12 04:47:29;;;;;;;25.35;13.13;;;1.30;99.90;;;;;;5078250;28;20045;-63
2022/12/12 04:49:57;;;;;;;23.75;12.02;;;1.40;99.90;;;;;;5092783;28;20043;-64
2022/12/12 04:52:25;;;;;;;26.67;13.50;;;1.40;99.90;;;;;;5086766;28;20398;-61
2022/12/12 04:55:04;;;;;;;24.42;11.93;;;1.40;99.90;;;;;;5020394;28;20034;-61
2022/12/12 04:57:38;;;;;;;26.13;13.48;;;1.40;99.90;;;;;;5054404;28;20060;-63
2022/12/12 05:00:06;;;;;;;24.75;12.75;;;1.40;99.90;;;;;;5033479;28;20029;-61
2022/12/12 05:02:53;;;;;;;25.48;12.35;;;1.40;99.90;;;;;;5185294;27;20475;-58
2022/12/12 05:05:34;;;;;;;27.10;13.20;;;1.40;99.90;;;;;;5143713;27;20501;-61
2022/12/12 05:08:10;;;;;;;27.20;12.00;;;1.40;99.90;;;;;;5104533;27;20097;-61
2022/12/12 05:10:44;;;;;;;27.27;13.25;;;1.30;99.90;;;;;;5137821;27;20465;-62
2022/12/12 05:13:18;;;;;;;24.05;11.48;;;1.30;99.90;;;;;;5089198;28;20067;-61
2022/12/12 05:15:45;;;;;;;26.33;12.82;;;1.40;99.90;;;;;;5029022;28;20033;-63
2022/12/12 05:18:11;;;;;;;23.15;12.02;;;1.40;99.90;;;;;;5064110;28;20076;-61
2022/12/12 05:20:37;;;;;;;22.42;11.85;;;1.40;99.90;;;;;;5027115;28;20053;-61
2022/12/12 05:23:13;;;;;;;27.08;13.52;;;1.40;99.90;;;;;;4971994;28;20689;-67
2022/12/12 05:25:38;;;;;;;22.23;11.48;;;1.40;99.90;;;;;;4952197;28;20174;-61
2022/12/12 05:28:11;;;;;;;24.35;12.32;;;1.40;99.90;;;;;;5197668;27;20132;-62
2022/12/12 05:30:37;;;;;;;26.98;11.98;;;1.40;99.90;;;;;;5183458;27;20046;-61
2022/12/12 05:33:03;;;;;;;25.60;12.60;;;1.30;99.90;;;;;;5152888;27;20220;-62
2022/12/12 05:35:28;;;;;;;27.05;12.45;;;1.30;99.90;;;;;;5158409;27;20384;-62
2022/12/12 05:37:54;;;;;;;24.52;12.18;;;1.30;99.90;;;;;;5103961;27;20049;-61
2022/12/12 05:40:21;;;;;;;26.83;13.30;;;1.30;99.90;;;;;;5039390;28;20096;-61
2022/12/12 05:42:47;;;;;;;25.63;12.77;;;1.30;99.90;;;;;;4927518;28;20546;-62
2022/12/12 05:45:13;;;;;;;24.73;12.68;;;1.40;99.90;;;;;;4933790;28;20047;-62
2022/12/12 05:47:39;;;;;;;23.42;12.80;;;1.40;99.90;;;;;;4912275;29;20048;-61
2022/12/12 05:50:05;;;;;;;25.55;12.32;;;1.30;99.90;;;;;;4842358;29;20044;-62
2022/12/12 05:52:42;;;;;;;25.40;13.07;;;1.40;99.90;;;;;;5185405;27;20145;-62
2022/12/12 05:55:08;;;;;;;23.73;12.75;;;1.30;99.90;;;;;;5157009;27;20485;-62
2022/12/12 05:57:33;;;;;;;26.80;13.35;;;1.40;99.90;;;;;;5165048;27;20383;-62
2022/12/12 05:59:59;;;;;;;25.17;13.15;;;1.40;99.90;;;;;;5159424;27;20149;-62
2022/12/12 06:02:25;;;;;;;24.05;12.13;;;1.30;99.90;;;;;;5109396;27;20048;-62
2022/12/12 06:04:50;;;;;;;22.77;12.00;;;1.30;99.90;;;;;;5079840;28;20062;-61
2022/12/12 06:07:16;;;;;;;25.48;12.23;;;1.30;99.90;;;;;;5053632;28;20037;-63
2022/12/12 06:09:42;;;;;;;26.55;12.68;;;1.40;99.90;;;;;;4958512;28;20113;-62
2022/12/12 06:12:07;;;;;;;25.92;12.07;;;1.30;99.90;;;;;;4862271;28;20069;-62
2022/12/12 06:14:33;;;;;;;23.55;12.10;;;1.30;99.90;;;;;;4785774;29;20046;-61
2022/12/12 06:17:09;;;;;;;23.42;12.25;;;1.30;99.90;;;;;;5186937;27;20498;-61
2022/12/12 06:19:34;;;;;;;27.05;12.68;;;1.30;99.90;;;;;;5171499;27;20378;-61
2022/12/12 06:22:00;;;;;;;27.10;12.35;;;1.30;99.90;;;;;;5126315;27;20074;-63
2022/12/12 06:24:26;;;;;;;26.10;12.80;;;1.30;99.90;;;;;;5101047;27;20036;-63
2022/12/12 06:26:51;;;;;;;26.63;12.63;;;1.30;99.90;;;;;;5104092;27;20040;-62
2022/12/12 06:29:17;;;;;;;26.25;12.73;;;1.30;99.90;;;;;;5031540;28;20443;-62
2022/12/12 06:31:43;;;;;;;25.15;13.25;;;1.40;99.90;;;;;;5006356;28;20406;-61
2022/12/12 06:34:08;;;;;;;24.75;12.82;;;1.40;99.90;;;;;;4938015;28;20051;-62
2022/12/12 06:36:35;;;;;;;26.27;13.43;;;1.40;99.90;;;;;;4917376;28;20062;-62
2022/12/12 06:39:01;;;;;;;25.25;12.93;;;1.30;99.90;;;;;;4855262;29;20051;-62
2022/12/12 06:41:38;;;;;;;24.38;12.65;;;1.30;99.90;;;;;;5190308;27;20144;-59
2022/12/12 06:44:04;;;;;;;26.15;13.23;;;1.30;99.90;;;;;;5138153;27;20489;-59
2022/12/12 06:46:30;;;;;;;24.48;12.68;;;1.30;99.90;;;;;;5134079;27;20047;-59
2022/12/12 06:48:56;;;;;;;25.20;12.38;;;1.30;99.90;;;;;;5100203;28;20054;-59
2022/12/12 06:51:25;;;;;;;26.63;13.27;;;1.30;99.90;;;;;;5087961;28;20045;-62
2022/12/12 06:53:51;;;;;;;27.10;12.95;;;1.30;99.90;;;;;;5044776;28;20059;-62
2022/12/12 06:56:25;;;;;;;25.23;12.63;;;1.30;99.90;;;;;;5053316;28;22078;-62
2022/12/12 06:58:51;;;;;;;25.20;13.05;;;1.30;99.90;;;;;;5010182;28;20117;-62
2022/12/12 07:01:20;;;;;;;26.67;12.93;;;1.30;99.90;;;;;;4926638;28;20048;-62
2022/12/12 07:03:48;;;;;;;23.75;12.13;;;1.30;99.90;;;;;;4864895;29;20044;-61
2022/12/12 07:06:25;;;;;;;24.95;12.27;;;1.30;99.90;;;;;;5190370;27;20593;-62
2022/12/12 07:08:51;;;;;;;27.10;12.52;;;1.30;99.90;;;;;;5158308;27;20035;-61
2022/12/12 07:11:21;;;;;;;28.45;12.93;;;1.20;99.90;;;;;;5165608;27;20039;-62
2022/12/12 07:13:47;;;;;;;24.98;12.85;;;1.30;99.90;;;;;;5132024;27;20044;-62
2022/12/12 07:16:13;;;;;;;25.50;13.02;;;1.30;99.90;;;;;;5117886;27;20040;-63
2022/12/12 07:18:38;;;;;;;27.30;13.80;;;1.20;99.90;;;;;;5097323;28;20084;-62
2022/12/12 07:21:06;;;;;;;26.63;13.55;;;1.30;99.90;;;;;;5046855;28;20483;-62
2022/12/12 07:23:33;;;;;;;23.88;13.05;;;1.30;99.90;;;;;;5027412;28;20049;-61
2022/12/12 07:26:05;;;;;;;27.95;13.27;;;1.20;99.90;;;;;;5030342;28;20093;-62
2022/12/12 07:28:31;;;;;;;26.42;13.30;;;1.20;99.90;;;;;;4974568;28;20045;-62
2022/12/12 07:31:12;;;;;;;24.92;13.27;;;1.20;99.90;;;;;;5193264;27;20120;-62
2022/12/12 07:33:38;;;;;;;27.48;13.15;;;1.30;99.90;;;;;;5161273;27;20043;-62
2022/12/12 07:36:04;;;;;;;24.10;13.05;;;1.30;99.90;;;;;;5130789;27;20069;-63
2022/12/12 07:38:30;;;;;;;27.35;13.98;;;1.30;99.90;;;;;;5137247;27;20054;-62
2022/12/12 07:41:02;;;;;;;23.83;12.35;;;1.20;99.90;;;;;;5137946;27;20472;-63
2022/12/12 07:43:28;;;;;;;26.42;13.07;;;1.20;99.90;;;;;;5083181;28;20040;-64
2022/12/12 07:45:54;;;;;;;24.95;12.65;;;1.20;99.90;;;;;;5106517;28;20052;-63
2022/12/12 07:48:19;;;;;;;25.50;12.88;;;1.20;99.90;;;;;;5080043;28;20048;-63
2022/12/12 07:50:45;;;;;;;26.33;13.30;;;1.20;99.90;;;;;;5071677;28;20478;-62
2022/12/12 07:53:10;;;;;;;23.67;12.80;;;1.20;99.90;;;;;;5035503;28;20060;-63
2022/12/12 07:55:48;;;;;;;24.40;12.80;;;1.20;99.90;;;;;;5200516;27;20475;-61
2022/12/12 07:58:13;;;;;;;25.40;13.57;;;1.20;99.90;;;;;;5165043;27;20043;-64
2022/12/12 08:00:39;;;;;;;28.00;14.65;;;1.20;99.90;;;;;;5176937;27;20047;-64
2022/12/12 08:03:04;;;;;;;26.42;13.38;;;1.30;99.90;;;;;;5158016;27;20553;-63
2022/12/12 08:05:30;;;;;;;25.50;13.73;;;1.20;99.90;;;;;;5143529;27;20477;-62
2022/12/12 08:07:56;;;;;;;25.40;13.88;;;1.30;99.90;;;;;;5133480;27;20122;-63
2022/12/12 08:10:21;;;;;;;25.75;13.60;;;1.30;99.90;;;;;;5149186;27;20036;-63
2022/12/12 08:12:47;;;;;;;28.15;13.57;;;1.30;99.90;;;;;;5064678;28;20043;-62
2022/12/12 08:15:15;;;;;;;25.80;13.88;;;1.30;99.90;;;;;;5049049;28;20046;-63
2022/12/12 08:17:41;;;;;;;30.05;14.73;;;1.30;99.90;;;;;;5007189;28;20029;-62
2022/12/12 08:20:18;;;;;;;31.15;16.23;;;1.30;99.90;;;;;;5196401;27;20124;-63
2022/12/12 08:22:44;;;;;;;30.17;16.83;;;1.30;99.90;;;;;;5172158;27;20047;-63
2022/12/12 08:25:10;;;;;;;28.25;15.40;;;1.30;99.90;;;;;;5127405;27;20374;-63
2022/12/12 08:27:35;;;;;;;27.65;14.38;;;1.30;99.90;;;;;;5145072;27;20035;-63
2022/12/12 08:30:01;;;;;;;26.27;13.25;;;1.30;99.90;;;;;;5085068;27;20037;-62
2022/12/12 08:32:26;;;;;;;26.02;14.07;;;1.30;99.90;;;;;;5033326;28;20586;-63
2022/12/12 08:34:56;;;;;;;27.08;13.75;;;1.30;99.90;;;;;;5019218;28;20129;-63
2022/12/12 08:37:22;;;;;;;27.05;13.07;;;1.30;99.90;;;;;;4931880;28;20290;-62
2022/12/12 08:39:49;;;;;;;26.88;13.20;;;1.30;99.90;;;;;;4889625;29;20044;-65
2022/12/12 08:42:14;;;;;;;24.52;13.20;;;1.30;99.90;;;;;;4833515;29;20035;-63
2022/12/12 08:44:48;;;;;;;27.58;13.75;;;1.30;99.90;;;;;;5198508;27;20116;-61
2022/12/12 08:47:13;;;;;;;25.15;13.30;;;1.30;99.90;;;;;;5180092;27;20193;-61
2022/12/12 08:49:39;;;;;;;26.98;13.48;;;1.30;99.90;;;;;;5182334;27;20141;-63
2022/12/12 08:52:08;;;;;;;30.25;14.40;;;1.40;99.90;;;;;;5145390;27;20039;-63
2022/12/12 08:54:35;;;;;;;26.23;13.05;;;1.40;99.90;;;;;;5083368;28;20403;-62
2022/12/12 08:57:00;;;;;;;29.52;13.60;;;1.40;99.90;;;;;;5087830;28;20047;-63
2022/12/12 08:59:26;;;;;;;28.55;14.15;;;1.40;99.90;;;;;;5065721;28;20048;-62
2022/12/12 09:01:51;;;;;;;26.35;14.05;;;1.40;99.90;;;;;;5054872;28;20083;-63
2022/12/12 09:04:17;;;;;;;25.65;13.63;;;1.40;99.90;;;;;;5018568;28;20052;-65
2022/12/12 09:06:44;;;;;;;26.88;14.48;;;1.40;99.90;;;;;;4939997;28;20108;-62
2022/12/12 09:09:21;;;;;;;26.05;13.95;;;1.50;99.90;;;;;;5196447;27;20128;-64
2022/12/12 09:11:47;;;;;;;28.42;14.63;;;1.50;99.90;;;;;;5161353;27;20059;-62
2022/12/12 09:14:12;;;;;;;39.22;19.77;;;1.50;99.90;;;;;;5134329;27;20043;-62
2022/12/12 09:16:38;;;;;;;34.20;17.00;;;1.50;99.90;;;;;;5105456;28;20036;-62
2022/12/12 09:19:04;;;;;;;28.58;15.88;;;1.50;99.90;;;;;;5115193;27;20135;-62
2022/12/12 09:21:30;;;;;;;26.88;14.45;;;1.50;99.90;;;;;;5111182;27;20043;-62
2022/12/12 09:23:55;;;;;;;28.98;14.50;;;1.60;99.90;;;;;;5108511;27;20055;-63
2022/12/12 09:26:21;;;;;;;28.85;14.55;;;1.60;99.90;;;;;;5003524;28;20556;-62
2022/12/12 09:28:47;;;;;;;28.95;15.13;;;1.60;99.90;;;;;;4934844;28;20047;-62
2022/12/12 09:31:13;;;;;;;26.15;13.75;;;1.60;99.90;;;;;;4868138;29;20037;-62
2022/12/12 09:33:51;;;;;;;24.48;13.85;;;1.60;99.90;;;;;;5180562;27;20136;-60
2022/12/12 09:36:16;;;;;;;28.50;14.32;;;1.60;99.90;;;;;;5181339;27;20385;-60
2022/12/12 09:38:42;;;;;;;29.35;14.13;;;1.70;99.90;;;;;;5144719;27;20039;-62
2022/12/12 09:41:08;;;;;;;28.15;14.60;;;1.70;99.90;;;;;;5164782;27;20039;-61
2022/12/12 09:43:43;;;;;;;29.92;14.55;;;1.80;99.90;;;;;;5156209;27;20049;-62
2022/12/12 09:46:30;;;;;;;28.38;14.73;;;1.80;99.90;;;;;;5093685;28;20046;-61
2022/12/12 09:49:12;;;;;;;25.65;14.18;;;1.80;99.90;;;;;;5022551;28;20045;-63
2022/12/12 09:51:39;;;;;;;26.35;14.48;;;1.80;99.90;;;;;;4945804;28;20115;-63
2022/12/12 09:54:21;;;;;;;28.55;15.55;;;1.80;99.90;;;;;;4861911;29;20052;-61
2022/12/12 09:59:26;;;;;;;28.63;15.52;;;1.90;99.90;;;;;;5192850;27;20688;-62
2022/12/12 10:01:59;;;;;;;24.58;14.30;;;1.90;99.90;;;;;;5130845;27;20047;-65
2022/12/12 10:04:56;;;;;;;28.65;15.20;;;1.90;99.90;;;;;;5139398;27;20539;-62
2022/12/12 10:13:35;;;;;;;27.88;14.48;;;2.00;99.90;;;;;;5187286;27;20192;-63
2022/12/12 10:16:09;;;;;;;26.92;14.07;;;2.00;99.90;;;;;;5127910;27;20312;-63
2022/12/12 10:18:43;;;;;;;27.65;15.43;;;2.10;99.90;;;;;;5110493;27;20056;-63
2022/12/12 10:59:22;;;;;;;35.00;16.58;;;3.10;99.90;;;;;;6360003;22;20055;-75
2022/12/12 11:01:57;;;;;;;32.72;15.07;;;2.30;99.90;;;;;;6382105;22;20037;-76
2022/12/12 11:04:26;;;;;;;29.38;14.93;;;2.30;99.90;;;;;;6353002;22;20010;-75
2022/12/12 11:06:54;;;;;;;25.50;14.05;;;2.30;99.90;;;;;;6380856;22;20071;-75
2022/12/12 11:09:22;;;;;;;26.30;14.40;;;2.30;99.90;;;;;;6369995;22;20021;-76
2022/12/12 11:12:09;;;;;;;26.45;14.80;;;2.30;99.90;;;;;;6235276;22;20338;-75
2022/12/12 11:14:59;;;;;;;27.23;14.15;;;2.30;99.90;;;;;;6168423;23;20017;-75
2022/12/12 11:17:29;;;;;;;25.83;13.95;;;2.30;99.90;;;;;;6054191;23;20072;-76
2022/12/12 11:19:57;;;;;;;31.77;15.43;;;2.40;99.90;;;;;;6047372;23;20007;-76
2022/12/12 11:22:37;;;;;;;30.58;16.23;;;2.40;99.90;;;;;;5194391;27;20157;-63
2022/12/12 11:25:04;;;;;;;36.28;18.83;;;2.40;99.90;;;;;;5106103;27;20424;-63
2022/12/12 11:27:36;;;;;;;33.33;17.95;;;2.40;99.90;;;;;;5100740;27;20100;-62
2022/12/12 11:30:31;;;;;;;33.25;16.60;;;2.50;99.90;;;;;;5130095;27;20091;-62
2022/12/12 11:32:57;;;;;;;29.63;15.48;;;2.40;99.90;;;;;;5100527;27;20122;-63
2022/12/12 11:35:43;;;;;;;32.85;16.55;;;2.50;99.90;;;;;;5089800;28;20044;-69
2022/12/12 11:38:23;;;;;;;29.73;15.80;;;2.50;99.90;;;;;;4979553;28;20050;-64
2022/12/12 11:40:59;;;;;;;31.88;16.15;;;2.50;99.90;;;;;;4929568;28;20052;-62
2022/12/12 11:43:31;;;;;;;28.17;15.32;;;2.60;99.90;;;;;;4840343;29;20786;-63
2022/12/12 11:46:16;;;;;;;29.15;15.48;;;2.60;99.90;;;;;;5181687;27;20116;-59
2022/12/12 11:48:51;;;;;;;27.45;15.20;;;2.60;99.90;;;;;;5143519;27;20038;-61
2022/12/12 11:51:37;;;;;;;29.27;15.60;;;2.60;99.90;;;;;;5154589;27;20540;-62
2022/12/12 11:54:12;;;;;;;28.83;15.35;;;2.70;99.90;;;;;;5099697;28;20039;-62
2022/12/12 11:56:41;;;;;;;29.20;15.77;;;2.70;99.90;;;;;;5044752;28;20384;-62
2022/12/12 11:59:25;;;;;;;28.88;16.27;;;2.80;99.90;;;;;;5018036;28;20030;-62
2022/12/12 12:02:07;;;;;;;29.98;16.65;;;2.90;99.90;;;;;;5047697;28;20044;-62
2022/12/12 12:04:56;;;;;;;28.33;15.45;;;2.90;99.90;;;;;;4960440;28;20084;-62
2022/12/12 12:07:45;;;;;;;29.02;16.75;;;2.90;99.90;;;;;;4883399;29;20514;-63
2022/12/12 12:12:53;;;;;;;33.50;16.95;;;3.00;99.90;;;;;;5187089;27;20137;-60
2022/12/12 12:15:34;;;;;;;31.48;16.80;;;3.00;99.90;;;;;;5122969;27;20130;-62
2022/12/12 12:18:15;;;;;;;27.38;15.63;;;2.90;99.90;;;;;;5136616;27;20041;-63
2022/12/12 12:21:06;;;;;;;31.50;15.70;;;2.90;99.90;;;;;;5136932;27;20481;-62
2022/12/12 12:24:02;;;;;;;39.22;20.67;;;3.00;99.90;;;;;;5035803;28;20373;-62
2022/12/12 12:26:34;;;;;;;29.10;16.42;;;3.10;99.90;;;;;;4979602;28;20498;-62
2022/12/12 12:29:09;;;;;;;47.50;27.83;;;3.10;99.90;;;;;;4945232;28;20075;-62
2022/12/12 12:31:40;;;;;;;32.78;18.88;;;3.10;99.90;;;;;;4859565;29;20053;-62
2022/12/12 12:34:33;;;;;;;28.63;16.17;;;3.00;99.90;;;;;;4763347;29;20138;-62
2022/12/12 12:40:04;;;;;;;27.77;15.32;;;3.00;99.90;;;;;;5185027;27;20124;-61
2022/12/12 12:43:00;;;;;;;27.67;15.52;;;2.90;99.90;;;;;;5139154;27;20058;-62
2022/12/12 12:45:48;;;;;;;27.52;14.52;;;3.00;99.90;;;;;;5084909;28;20422;-62
2022/12/12 12:48:22;;;;;;;27.70;14.32;;;2.90;99.90;;;;;;5072732;28;20045;-62
2022/12/12 12:51:16;;;;;;;33.92;19.00;;;3.20;99.90;;;;;;5096960;28;20061;-61
2022/12/12 12:53:47;;;;;;;37.08;20.80;;;3.30;99.90;;;;;;5048113;28;20045;-62
2022/12/12 12:56:32;;;;;;;28.27;16.02;;;3.30;99.90;;;;;;5026245;28;20049;-62
2022/12/12 12:59:01;;;;;;;28.27;15.45;;;3.20;99.90;;;;;;4989227;28;20077;-63
2022/12/12 13:01:37;;;;;;;30.55;15.60;;;3.20;99.90;;;;;;4955306;28;20382;-63
2022/12/12 13:04:10;;;;;;;29.80;16.75;;;3.10;99.90;;;;;;5188958;27;20133;-62
2022/12/12 13:06:35;;;;;;;32.78;17.25;;;3.00;99.90;;;;;;5148126;27;20043;-63
2022/12/12 13:09:10;;;;;;;30.38;15.98;;;2.90;99.90;;;;;;5134775;27;20561;-62
2022/12/12 13:11:39;;;;;;;29.52;15.73;;;2.90;99.90;;;;;;5133101;27;20442;-63
2022/12/12 13:14:19;;;;;;;31.08;16.02;;;2.90;99.90;;;;;;5101005;28;20047;-63
2022/12/12 13:16:46;;;;;;;30.67;16.08;;;2.80;99.90;;;;;;5063222;28;20485;-63
2022/12/12 13:19:30;;;;;;;33.35;16.35;;;2.80;99.90;;;;;;5068045;28;20048;-63
2022/12/12 13:22:31;;;;;;;31.20;17.40;;;2.80;99.90;;;;;;4966703;28;20145;-63
2022/12/12 13:25:27;;;;;;;30.85;16.40;;;2.80;99.90;;;;;;4896495;29;20040;-63
2022/12/12 13:30:44;;;;;;;36.47;21.52;;;2.80;99.90;;;;;;5184833;27;20381;-63
2022/12/12 13:33:20;;;;;;;34.53;18.63;;;2.90;99.90;;;;;;5114205;27;20050;-63
2022/12/12 13:35:50;;;;;;;34.60;17.58;;;2.80;99.90;;;;;;5149564;27;20030;-63
2022/12/12 13:38:24;;;;;;;31.77;17.77;;;2.70;99.90;;;;;;5153964;27;20054;-63
2022/12/12 13:41:02;;;;;;;34.75;18.35;;;2.80;99.90;;;;;;5113152;27;20048;-63
2022/12/12 13:43:46;;;;;;;34.72;18.13;;;2.80;99.90;;;;;;5115823;27;20040;-63
2022/12/12 13:46:22;;;;;;;34.72;18.15;;;2.70;99.90;;;;;;5080517;28;20041;-63
2022/12/12 13:49:06;;;;;;;34.88;17.88;;;2.70;99.90;;;;;;5060227;28;20395;-62
2022/12/12 13:51:36;;;;;;;33.10;17.67;;;3.00;99.90;;;;;;4998867;28;20400;-61
2022/12/12 13:54:37;;;;;;;36.00;17.50;;;3.10;99.90;;;;;;5192421;27;20132;-63
2022/12/12 13:57:12;;;;;;;34.53;19.33;;;3.20;99.90;;;;;;5121127;27;20420;-61
2022/12/12 13:59:53;;;;;;;39.13;18.88;;;3.10;99.90;;;;;;5073855;28;20435;-61
2022/12/12 14:02:29;;;;;;;42.53;20.17;;;2.90;99.90;;;;;;5039009;28;20156;-63
2022/12/12 14:05:27;;;;;;;36.33;19.27;;;2.80;99.90;;;;;;5051468;28;20097;-63
2022/12/12 14:08:00;;;;;;;37.45;19.05;;;2.60;99.90;;;;;;4997940;28;20050;-63
2022/12/12 14:10:39;;;;;;;41.45;20.65;;;2.50;99.90;;;;;;4952209;28;20054;-61
2022/12/12 14:13:20;;;;;;;38.53;19.00;;;2.40;99.90;;;;;;4910641;29;20144;-63
2022/12/12 14:19:05;;;;;;;40.22;19.65;;;2.30;99.90;;;;;;5186776;27;20128;-62